Historyczne dane pomiarowe

Dodano dane terminowe – wersja testowa.

Dane z okresu 1951-2019

Wersja bazy: 1.34 [2019-03-16, lista zmian], aktualizacja planowana na 2019-04-15

Dane meteo z obszaru Polski uzyskane na podstawie danych udostępnionych przez Instytut Meteorologii i Gospodarki Wodnej – Państwowy Instytut Badawczy.

 

Wybierz Datę:    

       

TemperaturaWilgotnośćWiatrCiśnienieOpadyŚniegCzas trwania zjawisk
 Stacja t tx tn tng RH VA  wxwx mslp ppp RRR   cm mm wxwxwxwxwxwxwx
1961-08-14 12.9 19.9 5.4- 86.8- 3.7 0.7---- 0.0------------
1961-08-13 11.8 15.2 9.0- 95.0- 6.0 1.0---- 6.3------------
1961-08-12 16.6 21.4 14.1- 94.0- 8.0 1.3---- 24.3------------
1961-08-11 21.0 28.4 18.0- 93.8- 4.0 1.3---- 0.2------------
1961-08-10 22.8 29.4 17.3- 94.8- 2.7 0.3---- 0.0------------
1961-08-09 22.8 29.4 14.3- 88.8- 4.7 0.3---- 10.8------------
1961-08-08 18.9 23.9 14.7- 94.3- 4.7 1.0---- 0.0------------
1961-08-07 21.6 27.0 12.4- 89.5- 5.0 0.3---- 4.8------------
1961-08-06 21.1 29.5 11.4- 83.5- 0.0 1.3---- 0.0------------
1961-08-05 17.6 24.4 14.3- 90.3- 4.0 1.3---- 0.0------------
1961-08-04 16.0 21.0 6.2- 75.0- 4.0 0.7---- 0.0------------
1961-08-03 15.4 20.8 11.8- 90.8- 6.7 0.7---- 0.4------------
1961-08-02 17.9 25.9 7.4- 80.3- 1.3 1.0---- 0.0------------
1961-08-01 14.4 21.2 9.8- 83.0- 3.7 1.3---- 0.0------------
1961-07-31 11.7 15.4 10.2- 95.0- 6.3 1.3---- 4.3------------
1961-07-30 11.9 14.0 10.2- 93.0- 8.0 1.0---- 17.2------------
1961-07-29 13.0 16.7 11.6- 95.5- 7.7 0.7---- 1.8------------
1961-07-28 18.3 23.9 16.3- 89.8- 7.3 1.7---- 12.6------------
1961-07-27 20.2 25.5 9.4- 81.5- 6.0 2.0---- 1.3------------
1961-07-26 14.8 23.2 6.8- 83.0- 2.7 0.7---- 0.0------------
1961-07-25 11.6 15.4 7.7- 89.8- 6.7 0.3---- 0.0------------
1961-07-24 13.0 18.4 10.2- 85.8- 7.0 1.0---- 0.0------------
1961-07-23 15.6 20.4 11.8- 81.0- 6.0 0.7---- 0.0------------
1961-07-22 15.5 20.2 12.7- 89.8- 6.7 1.3---- 1.9------------
1961-07-21 16.0 20.4 10.7- 78.5- 4.0 3.0---- 0.0------------
1961-07-20 13.7 19.0 8.4- 90.5- 5.3 1.0---- 1.4------------
1961-07-19 14.7 19.6 11.8- 85.3- 4.7 2.0---- 8.6------------
1961-07-18 15.6 19.8 9.3- 79.0- 5.7 2.7---- 0.0------------
1961-07-17 14.7 20.6 12.0- 77.5- 3.3 2.3---- 2.9------------
1961-07-16 15.9 23.0 13.3- 86.8- 6.0 1.7---- 0.4------------
1961-07-15 17.6 22.8 14.3- 83.3- 5.0 1.3---- 36.2------------
1961-07-14 16.1 19.8 13.1- 64.3- 3.0 3.0---- 0.0------------
1961-07-13 19.4 27.9 12.4- 79.8- 5.0 1.7---- 25.3------------
1961-07-12 19.7 27.2 11.7- 83.8- 2.7 0.7---- 0.0------------
1961-07-11 15.9 22.5 5.8- 82.8- 2.7 1.7---- 0.0------------
1961-07-10 15.1 19.6 9.8- 82.5- 4.0 1.3---- 2.1------------
1961-07-09 14.2 18.9 6.7- 90.0- 6.0 1.3---- 2.4------------
1961-07-08 13.9 21.4 6.2- 81.3- 4.0 0.7---- 0.0------------
1961-07-07 12.9 17.9 9.2- 82.3- 4.0 1.3---- 0.0------------
1961-07-06 13.1 16.2 8.2- 77.0- 7.0 2.3---- 0.0------------
1961-07-05 13.6 18.2 11.2- 80.3- 5.3 0.7---- 0.0------------
1961-07-04 20.2 28.7 13.9- 83.5- 5.7 1.0---- 6.2------------
1961-07-03 21.0 29.9 11.7- 75.8- 1.0 0.7---- 0.0------------
1961-07-02 20.3 28.6 11.0- 79.5- 0.7 0.7---- 0.0------------
1961-07-01 19.4 28.0 9.8- 82.0- 0.3 0.3---- 0.0------------
1961-06-30 17.1 23.6 8.0- 83.3- 0.7 0.3---- 0.0------------
1961-06-29 14.9 21.2 6.4- 79.5- 1.7 0.7---- 0.0------------
1961-06-28 13.2 21.8 10.6- 81.8- 4.3 1.7---- 1.1------------
1961-06-27 23.4 32.6 12.7- 72.0- 4.3 1.3---- 39.2------------
1961-06-26 22.2 28.9 12.9- 71.0- 4.3 1.7---- 0.0------------
1961-06-25 21.0 29.9 9.8- 68.8- 0.3 1.0---- 0.0------------
1961-06-24 18.1 26.1 10.2- 76.5- 2.0 1.7---- 0.0------------
1961-06-23 17.8 24.6 15.1- 80.5- 2.3 1.7---- 0.0------------
1961-06-22 19.1 26.9 8.8- 75.5- 5.3 1.3---- 10.0------------
1961-06-21 16.6 25.1 5.0- 69.3- 1.7 1.0---- 0.0------------
1961-06-20 14.6 21.9 9.7- 70.3- 1.0 1.3---- 0.0------------
1961-06-19 18.0 26.3 11.0- 81.8- 5.3 2.0---- 0.0------------
1961-06-18 20.4 26.7 7.0- 61.0- 0.3 1.0---- 0.0------------
1961-06-17 15.1 23.9 6.2- 76.8- 1.0 1.0---- 0.0------------
1961-06-16 13.6 21.1 7.4- 75.3- 3.0 0.7---- 0.0------------
1154.3 ms

 

Źródłem pochodzenia danych jest Instytut Meteorologii i Gospodarki Wodnej – Państwowy Instytut Badawczy. Dane Instytutu Meteorologii i Gospodarki Wodnej – Państwowego Instytutu Badawczego zostały przetworzone.

Dane źródłowe można odnaleźć na stronie https://dane.imgw.pl